Time;durP1;ratioP1;P1;durP2;ratioP2;P2;SDS_P1;SDS_P2;PMS_P1;PMS_P2;Temp;Humidity;BMP_temperature;BMP_pressure;BME280_temperature;BME280_humidity;BME280_pressure;Samples;Min_cycle;Max_cycle;Signal;HPM_P1;HPM_P2
2024/03/15 00:02:15;;;;;;;2.15;1.35;;;7.80;99.90;;;;;;5093955;28;20169;-60
2024/03/15 00:04:44;;;;;;;1.50;1.40;;;7.90;99.90;;;;;;5093827;28;20203;-61
2024/03/15 00:07:09;;;;;;;1.40;1.02;;;8.00;99.90;;;;;;5093870;28;20215;-61
2024/03/15 00:09:35;;;;;;;1.40;1.23;;;7.90;99.90;;;;;;5093584;28;20209;-60
2024/03/15 00:12:01;;;;;;;1.27;1.13;;;7.80;99.90;;;;;;5093864;28;20187;-61
2024/03/15 00:14:27;;;;;;;2.70;1.77;;;7.80;99.90;;;;;;5093556;28;20886;-61
2024/03/15 00:16:56;;;;;;;1.70;1.60;;;7.90;99.90;;;;;;5093710;28;20832;-61
2024/03/15 00:19:22;;;;;;;2.15;1.40;;;8.00;99.90;;;;;;5093383;28;20189;-61
2024/03/15 00:21:48;;;;;;;1.30;1.20;;;8.10;99.90;;;;;;5093736;28;20250;-60
2024/03/15 00:24:15;;;;;;;3.60;1.70;;;8.10;99.90;;;;;;5093430;28;20208;-61
2024/03/15 00:26:43;;;;;;;1.85;1.30;;;8.20;99.90;;;;;;5093540;28;20289;-60
2024/03/15 00:29:10;;;;;;;1.45;1.35;;;8.20;99.90;;;;;;5093090;28;20172;-60
2024/03/15 00:31:36;;;;;;;1.10;1.10;;;8.20;99.90;;;;;;5093452;28;20176;-60
2024/03/15 00:34:03;;;;;;;2.15;1.20;;;8.10;99.90;;;;;;5093245;28;20192;-60
2024/03/15 00:36:31;;;;;;;1.88;1.77;;;8.10;99.90;;;;;;5093638;28;20211;-60
2024/03/15 00:38:57;;;;;;;3.63;1.65;;;8.20;99.90;;;;;;5092942;28;20173;-61
2024/03/15 00:41:23;;;;;;;1.67;1.57;;;8.20;99.90;;;;;;5093259;28;20222;-60
2024/03/15 00:43:49;;;;;;;3.85;1.30;;;8.20;99.90;;;;;;5093040;28;20502;-61
2024/03/15 00:46:15;;;;;;;1.27;1.20;;;8.30;99.90;;;;;;5093197;28;20264;-60
2024/03/15 00:48:41;;;;;;;3.53;1.63;;;8.30;99.90;;;;;;5092846;28;20221;-61
2024/03/15 00:51:10;;;;;;;1.80;1.40;;;8.30;99.90;;;;;;5093024;28;20177;-60
2024/03/15 00:53:36;;;;;;;1.75;1.60;;;8.30;99.90;;;;;;5092916;28;20200;-60
2024/03/15 00:56:04;;;;;;;2.40;1.42;;;8.30;99.90;;;;;;5092866;28;20207;-61
2024/03/15 00:58:30;;;;;;;1.40;1.30;;;8.30;99.90;;;;;;5092817;28;20180;-61
2024/03/15 01:00:56;;;;;;;3.13;1.55;;;8.30;99.90;;;;;;5092845;28;20258;-60
2024/03/15 01:03:23;;;;;;;1.42;1.30;;;8.30;99.90;;;;;;5092530;28;20192;-61
2024/03/15 01:05:49;;;;;;;2.10;1.83;;;8.30;99.90;;;;;;5092845;28;20183;-60
2024/03/15 01:08:14;;;;;;;1.50;1.40;;;8.30;99.90;;;;;;5092629;28;20175;-61
2024/03/15 01:10:41;;;;;;;1.63;1.33;;;8.30;99.90;;;;;;5092707;28;20197;-60
2024/03/15 01:13:06;;;;;;;1.38;1.27;;;8.30;99.90;;;;;;5092737;28;20189;-61
2024/03/15 01:15:32;;;;;;;2.70;1.53;;;8.30;99.90;;;;;;5092773;28;20179;-61
2024/03/15 01:17:58;;;;;;;2.10;1.40;;;8.30;99.90;;;;;;5092555;28;20201;-61
2024/03/15 01:20:23;;;;;;;1.10;1.10;;;8.20;99.90;;;;;;5092434;28;20214;-61
2024/03/15 01:22:49;;;;;;;2.93;1.10;;;8.20;99.90;;;;;;5092349;28;20207;-62
2024/03/15 01:25:15;;;;;;;1.65;1.55;;;8.20;99.90;;;;;;5092319;28;20242;-61
2024/03/15 01:27:41;;;;;;;1.30;1.20;;;8.20;99.90;;;;;;5092414;28;20185;-61
2024/03/15 01:30:10;;;;;;;1.80;1.30;;;8.20;99.90;;;;;;5092119;28;20179;-61
2024/03/15 01:32:36;;;;;;;1.63;1.52;;;8.10;99.90;;;;;;5092241;28;20248;-61
2024/03/15 01:35:03;;;;;;;0.90;0.90;;;8.10;99.90;;;;;;5092163;28;20180;-61
2024/03/15 01:37:28;;;;;;;1.35;1.25;;;8.10;99.90;;;;;;5092174;28;20235;-61
2024/03/15 01:39:54;;;;;;;1.20;1.10;;;8.10;99.90;;;;;;5091942;28;20616;-61
2024/03/15 01:42:20;;;;;;;1.60;1.50;;;8.10;99.90;;;;;;5092154;28;20180;-61
2024/03/15 01:44:54;;;;;;;3.38;1.60;;;8.10;99.90;;;;;;5092316;28;20810;-61
2024/03/15 01:47:20;;;;;;;1.80;1.58;;;8.10;99.90;;;;;;5092087;28;20200;-61
2024/03/15 01:49:50;;;;;;;1.17;1.10;;;8.20;99.90;;;;;;5091793;28;20625;-60
2024/03/15 01:52:16;;;;;;;1.63;1.40;;;8.10;99.90;;;;;;5091927;28;20183;-60
2024/03/15 01:54:44;;;;;;;0.90;0.90;;;8.10;99.90;;;;;;5092100;28;20713;-61
2024/03/15 01:57:10;;;;;;;1.70;1.60;;;8.10;99.90;;;;;;5091810;28;20482;-61
2024/03/15 01:59:35;;;;;;;1.67;1.57;;;8.10;99.90;;;;;;5091657;28;20204;-61
2024/03/15 02:02:04;;;;;;;1.43;1.33;;;8.10;99.90;;;;;;5092067;28;20172;-61
2024/03/15 02:04:30;;;;;;;3.47;1.15;;;8.10;99.90;;;;;;5092051;28;20200;-61
2024/03/15 02:06:57;;;;;;;1.05;1.05;;;8.00;99.90;;;;;;5091773;28;20187;-61
2024/03/15 02:09:22;;;;;;;1.75;1.65;;;7.90;99.90;;;;;;5091763;28;20261;-61
2024/03/15 02:11:48;;;;;;;2.53;1.70;;;7.90;99.90;;;;;;5091853;28;20661;-61
2024/03/15 02:14:14;;;;;;;1.53;1.43;;;7.90;99.90;;;;;;5091150;28;20192;-61
2024/03/15 02:16:40;;;;;;;1.40;1.30;;;7.90;99.90;;;;;;5093576;28;20270;-61
2024/03/15 02:19:06;;;;;;;1.77;1.10;;;7.90;99.90;;;;;;5092402;28;20418;-61
2024/03/15 02:21:32;;;;;;;1.33;1.23;;;7.80;99.90;;;;;;5075584;28;20183;-61
2024/03/15 02:23:57;;;;;;;0.80;0.80;;;7.80;99.90;;;;;;5075416;28;20578;-61
2024/03/15 02:26:23;;;;;;;2.30;1.30;;;7.90;99.90;;;;;;5075303;28;20255;-61
2024/03/15 02:28:49;;;;;;;1.23;1.23;;;7.90;99.90;;;;;;5075262;28;20662;-61
2024/03/15 02:31:14;;;;;;;1.13;1.13;;;7.90;99.90;;;;;;5075621;28;20248;-62
2024/03/15 02:33:40;;;;;;;3.40;1.87;;;7.90;99.90;;;;;;5075319;28;20247;-61
2024/03/15 02:36:10;;;;;;;1.53;1.33;;;7.90;99.90;;;;;;5075286;28;20709;-61
2024/03/15 02:38:36;;;;;;;0.80;0.80;;;8.00;99.90;;;;;;5075240;28;20177;-61
2024/03/15 02:41:04;;;;;;;1.77;1.20;;;8.00;99.90;;;;;;5075356;28;20184;-61
2024/03/15 02:43:30;;;;;;;2.05;1.58;;;8.00;99.90;;;;;;5075108;28;20200;-61
2024/03/15 02:45:56;;;;;;;1.13;1.02;;;7.90;99.90;;;;;;5075181;28;20185;-61
2024/03/15 02:48:21;;;;;;;1.40;1.30;;;7.90;99.90;;;;;;5074852;28;20165;-61
2024/03/15 02:50:47;;;;;;;0.97;0.97;;;7.80;99.90;;;;;;5075003;28;20225;-61
2024/03/15 02:53:13;;;;;;;2.43;1.47;;;7.90;99.90;;;;;;5074998;28;20224;-61
2024/03/15 02:55:39;;;;;;;1.48;1.10;;;7.80;99.90;;;;;;5056974;28;20493;-61
2024/03/15 02:58:09;;;;;;;1.63;1.47;;;7.80;99.90;;;;;;5074780;28;20177;-61
2024/03/15 03:00:35;;;;;;;2.22;2.13;;;7.90;99.90;;;;;;5075042;28;20219;-61
2024/03/15 03:03:00;;;;;;;1.73;1.53;;;7.90;99.90;;;;;;5074781;28;20268;-62
2024/03/15 03:05:26;;;;;;;1.60;1.50;;;7.90;99.90;;;;;;5074692;28;20226;-61
2024/03/15 03:07:51;;;;;;;1.53;1.43;;;7.60;99.90;;;;;;5074620;28;20168;-61
2024/03/15 03:10:17;;;;;;;2.73;1.47;;;7.80;99.90;;;;;;5074584;28;20177;-61
2024/03/15 03:12:43;;;;;;;1.00;0.90;;;7.90;99.90;;;;;;5074697;28;20592;-61
2024/03/15 03:15:10;;;;;;;1.40;1.30;;;7.90;99.90;;;;;;5074652;28;20184;-61
2024/03/15 03:17:36;;;;;;;1.30;1.20;;;7.90;99.90;;;;;;5074399;28;20250;-61
2024/03/15 03:20:03;;;;;;;2.17;1.90;;;8.00;99.90;;;;;;5074249;28;20194;-61
2024/03/15 03:22:29;;;;;;;2.20;1.25;;;8.00;99.90;;;;;;5074328;28;20200;-61
2024/03/15 03:24:55;;;;;;;2.03;1.40;;;8.00;99.90;;;;;;5074530;28;20260;-61
2024/03/15 03:27:20;;;;;;;2.10;1.47;;;7.90;99.90;;;;;;5074356;28;20176;-61
2024/03/15 03:29:46;;;;;;;1.87;1.40;;;8.00;99.90;;;;;;5074472;28;20176;-61
2024/03/15 03:32:11;;;;;;;1.37;1.30;;;8.00;99.90;;;;;;5074260;28;20175;-61
2024/03/15 03:34:37;;;;;;;1.60;1.50;;;7.90;99.90;;;;;;5056257;28;20176;-61
2024/03/15 03:37:02;;;;;;;1.23;1.13;;;7.80;99.90;;;;;;5074253;28;20758;-61
2024/03/15 03:39:30;;;;;;;1.93;1.80;;;7.80;99.90;;;;;;5073941;28;20164;-61
2024/03/15 03:41:56;;;;;;;1.52;1.23;;;7.90;99.90;;;;;;5074287;28;20200;-61
2024/03/15 03:44:21;;;;;;;1.47;1.37;;;7.80;99.90;;;;;;5073971;28;20207;-62
2024/03/15 03:46:47;;;;;;;2.40;1.50;;;7.90;99.90;;;;;;5072587;28;20248;-61
2024/03/15 03:49:13;;;;;;;3.60;1.73;;;7.80;99.90;;;;;;5073636;28;20727;-61
2024/03/15 03:51:38;;;;;;;1.30;1.20;;;7.90;99.90;;;;;;5073920;28;20415;-62
2024/03/15 03:54:04;;;;;;;2.27;1.97;;;7.80;99.90;;;;;;5073810;28;20196;-61
2024/03/15 03:56:30;;;;;;;2.00;1.77;;;7.80;99.90;;;;;;5073835;28;20197;-61
2024/03/15 03:58:55;;;;;;;1.33;1.23;;;7.90;99.90;;;;;;5073514;28;20177;-61
2024/03/15 04:01:21;;;;;;;1.60;1.50;;;7.90;99.90;;;;;;5073652;28;20166;-61
2024/03/15 04:03:48;;;;;;;2.83;1.50;;;7.90;99.90;;;;;;5073569;28;20195;-61
2024/03/15 04:06:14;;;;;;;1.60;1.50;;;8.00;99.90;;;;;;5073797;28;20181;-60
2024/03/15 04:08:40;;;;;;;1.63;1.40;;;7.90;99.90;;;;;;5073461;28;20594;-61
2024/03/15 04:11:06;;;;;;;1.93;1.50;;;8.00;99.90;;;;;;5073601;28;20417;-61
2024/03/15 04:13:31;;;;;;;1.30;1.20;;;8.00;99.90;;;;;;5055355;28;20203;-61
2024/03/15 04:15:57;;;;;;;4.33;2.23;;;8.20;99.90;;;;;;5073305;28;20189;-61
2024/03/15 04:18:23;;;;;;;1.70;1.40;;;8.30;99.90;;;;;;5073439;28;20256;-61
2024/03/15 04:20:49;;;;;;;1.53;1.33;;;8.30;99.90;;;;;;5073521;28;20271;-61
2024/03/15 04:23:20;;;;;;;1.40;1.30;;;8.30;99.90;;;;;;5073109;28;20200;-60
2024/03/15 04:25:48;;;;;;;2.25;1.98;;;8.40;99.90;;;;;;5073379;28;20184;-61
2024/03/15 04:28:14;;;;;;;1.13;1.10;;;8.40;99.90;;;;;;5073000;28;20226;-61
2024/03/15 04:30:40;;;;;;;1.65;1.52;;;8.40;99.90;;;;;;5073135;28;20376;-61
2024/03/15 04:33:06;;;;;;;3.73;1.50;;;8.40;99.90;;;;;;5073138;28;20242;-61
2024/03/15 04:35:31;;;;;;;2.07;1.80;;;8.40;99.90;;;;;;5073124;28;20211;-61
2024/03/15 04:37:57;;;;;;;1.70;1.60;;;8.50;99.90;;;;;;5072611;28;20201;-61
2024/03/15 04:40:25;;;;;;;2.27;1.70;;;8.70;99.90;;;;;;5072680;28;20169;-61
2024/03/15 04:42:51;;;;;;;2.10;1.90;;;8.70;99.90;;;;;;5072895;28;20196;-61
2024/03/15 04:45:17;;;;;;;1.80;1.70;;;8.70;99.90;;;;;;5072838;28;20173;-61
2024/03/15 04:47:44;;;;;;;1.90;1.80;;;8.60;99.90;;;;;;5072990;28;20222;-60
2024/03/15 04:50:10;;;;;;;1.40;1.30;;;8.60;99.90;;;;;;5072761;28;20177;-61
2024/03/15 04:52:42;;;;;;;4.00;1.90;;;8.70;99.90;;;;;;5072782;28;20201;-61
2024/03/15 04:55:09;;;;;;;2.00;1.60;;;8.70;99.90;;;;;;5072709;28;20178;-61
2024/03/15 04:57:36;;;;;;;1.60;1.50;;;8.80;99.90;;;;;;5072511;28;20205;-61
2024/03/15 05:00:09;;;;;;;2.95;1.80;;;8.90;99.90;;;;;;5072407;28;20748;-61
2024/03/15 05:02:34;;;;;;;2.45;1.65;;;8.90;99.90;;;;;;5072633;28;20194;-61
2024/03/15 05:05:00;;;;;;;1.90;1.80;;;8.90;99.90;;;;;;5072523;28;20172;-61
2024/03/15 05:07:25;;;;;;;9.33;1.80;;;9.00;99.90;;;;;;5072414;28;20211;-61
2024/03/15 05:09:51;;;;;;;2.03;1.83;;;9.00;99.90;;;;;;5072252;28;20708;-61
2024/03/15 05:12:17;;;;;;;1.60;1.50;;;9.00;99.90;;;;;;5072068;28;20172;-61
2024/03/15 05:14:42;;;;;;;2.30;2.20;;;9.00;99.90;;;;;;5072368;28;20174;-61
2024/03/15 05:17:08;;;;;;;2.27;1.70;;;9.00;99.90;;;;;;5072268;28;20197;-61
2024/03/15 05:19:33;;;;;;;2.33;2.13;;;9.00;99.90;;;;;;5072297;28;20181;-61
2024/03/15 05:21:59;;;;;;;1.60;1.50;;;9.00;99.90;;;;;;5072004;28;20169;-61
2024/03/15 05:24:26;;;;;;;2.93;1.77;;;9.00;99.90;;;;;;5111178;22;20219;-64
2024/03/15 05:26:51;;;;;;;2.53;2.33;;;9.10;99.90;;;;;;5092343;28;20983;-64
2024/03/15 05:29:17;;;;;;;2.20;1.70;;;9.20;99.90;;;;;;5091886;28;20172;-64
2024/03/15 05:31:43;;;;;;;3.03;1.60;;;9.30;99.90;;;;;;5072112;28;20189;-64
2024/03/15 05:34:09;;;;;;;2.13;2.03;;;9.40;99.90;;;;;;5072016;28;20451;-64
2024/03/15 05:36:35;;;;;;;2.07;1.73;;;9.40;99.90;;;;;;5071991;28;20211;-63
2024/03/15 05:39:01;;;;;;;1.80;1.70;;;9.50;99.90;;;;;;5071782;28;20256;-64
2024/03/15 05:41:27;;;;;;;5.00;2.20;;;9.50;99.90;;;;;;5071825;28;20174;-64
2024/03/15 05:43:52;;;;;;;1.90;1.80;;;9.50;99.90;;;;;;5071834;28;20192;-64
2024/03/15 05:46:18;;;;;;;2.73;2.17;;;9.50;99.90;;;;;;5066477;28;20237;-64
2024/03/15 05:48:44;;;;;;;2.00;1.87;;;9.60;99.90;;;;;;5071549;28;20416;-64
2024/03/15 05:51:09;;;;;;;2.27;1.70;;;9.70;99.90;;;;;;5071060;28;20173;-63
2024/03/15 05:53:35;;;;;;;3.00;2.23;;;9.70;99.90;;;;;;5088170;28;20230;-64
2024/03/15 05:56:01;;;;;;;3.33;2.63;;;9.80;99.90;;;;;;5092388;28;20197;-63
2024/03/15 05:58:27;;;;;;;3.40;2.10;;;9.90;99.90;;;;;;5091673;28;20192;-64
2024/03/15 06:00:52;;;;;;;2.87;1.93;;;9.90;99.90;;;;;;5091954;28;20593;-64
2024/03/15 06:03:18;;;;;;;5.33;2.20;;;10.00;99.90;;;;;;5091538;28;20279;-64
2024/03/15 06:05:44;;;;;;;1.47;1.13;;;10.00;99.90;;;;;;5091246;28;20169;-63
2024/03/15 06:08:10;;;;;;;1.93;1.83;;;9.90;99.90;;;;;;5091041;28;20699;-64
2024/03/15 06:10:38;;;;;;;1.77;1.38;;;9.90;99.90;;;;;;5091474;28;20407;-64
2024/03/15 06:13:05;;;;;;;3.10;1.88;;;10.00;99.90;;;;;;5091874;28;20211;-64
2024/03/15 06:15:30;;;;;;;2.97;2.17;;;10.00;99.90;;;;;;5091886;28;20181;-63
2024/03/15 06:17:56;;;;;;;2.63;1.87;;;10.00;99.90;;;;;;5091546;28;20674;-63
2024/03/15 06:20:21;;;;;;;3.60;1.90;;;10.00;99.90;;;;;;5091655;28;20613;-64
2024/03/15 06:22:47;;;;;;;2.27;2.07;;;10.00;99.90;;;;;;5091611;28;20250;-63
2024/03/15 06:25:13;;;;;;;2.80;2.00;;;10.10;99.90;;;;;;5091602;28;20543;-65
2024/03/15 06:27:44;;;;;;;2.20;1.60;;;10.20;99.90;;;;;;5091817;28;20183;-64
2024/03/15 06:30:12;;;;;;;1.77;1.63;;;10.30;99.90;;;;;;5090490;28;20175;-64
2024/03/15 06:32:38;;;;;;;3.03;2.83;;;10.40;99.90;;;;;;5091328;28;20261;-64
2024/03/15 06:35:18;;;;;;;2.10;1.70;;;10.50;99.90;;;;;;5091576;28;20443;-64
2024/03/15 06:37:53;;;;;;;1.90;1.47;;;10.60;99.90;;;;;;5091312;28;20508;-64
2024/03/15 06:40:20;;;;;;;3.90;1.50;;;10.80;99.90;;;;;;5091455;28;20551;-64
2024/03/15 06:43:09;;;;;;;2.35;1.60;;;10.80;99.90;;;;;;5091352;28;20737;-64
2024/03/15 06:48:22;;;;;;;12.10;2.10;;;11.00;99.90;;;;;;5091214;28;20965;-65
2024/03/15 06:50:50;;;;;;;3.60;2.07;;;11.00;99.90;;;;;;5091447;28;20402;-64
2024/03/15 06:53:17;;;;;;;2.13;1.50;;;11.10;99.90;;;;;;5090983;28;20422;-64
2024/03/15 06:55:48;;;;;;;1.80;1.70;;;11.10;99.90;;;;;;5085807;28;20813;-65
2024/03/15 06:58:14;;;;;;;3.13;1.67;;;11.10;99.90;;;;;;5091149;28;20952;-64
2024/03/15 07:00:40;;;;;;;2.90;1.80;;;11.30;99.90;;;;;;5091296;28;20497;-64
2024/03/15 07:03:07;;;;;;;2.80;2.60;;;11.50;99.90;;;;;;5094300;28;20189;-64
2024/03/15 07:05:32;;;;;;;1.93;1.60;;;11.50;99.90;;;;;;5095144;28;20405;-64
2024/03/15 07:07:58;;;;;;;2.23;1.87;;;11.50;99.90;;;;;;5094989;28;20410;-64
2024/03/15 07:10:24;;;;;;;9.23;2.67;;;11.60;99.90;;;;;;5094972;28;20215;-64
2024/03/15 07:12:51;;;;;;;2.17;1.97;;;11.50;99.90;;;;;;5094907;28;20211;-64
2024/03/15 07:15:18;;;;;;;1.83;1.73;;;11.60;99.90;;;;;;5094827;28;20181;-64
2024/03/15 07:17:44;;;;;;;2.80;2.30;;;11.60;99.70;;;;;;5094827;28;20460;-64
2024/03/15 07:20:13;;;;;;;2.83;2.03;;;11.70;99.90;;;;;;5094592;28;20785;-64
2024/03/15 07:22:40;;;;;;;2.40;2.20;;;11.70;99.90;;;;;;5094690;28;20226;-64
2024/03/15 07:25:06;;;;;;;3.07;2.77;;;11.80;99.90;;;;;;5076980;28;20415;-64
2024/03/15 07:27:32;;;;;;;2.20;2.00;;;11.80;99.90;;;;;;5094666;28;20462;-64
2024/03/15 07:30:01;;;;;;;3.37;2.67;;;11.80;99.80;;;;;;5094417;28;20422;-64
2024/03/15 07:32:30;;;;;;;2.90;2.60;;;11.90;99.10;;;;;;5094578;28;20411;-64
2024/03/15 07:34:55;;;;;;;4.03;3.33;;;12.00;99.00;;;;;;5094613;28;20854;-64
2024/03/15 07:37:22;;;;;;;3.17;2.70;;;12.00;99.20;;;;;;5094403;28;20541;-64
2024/03/15 07:39:48;;;;;;;3.50;2.60;;;12.00;99.20;;;;;;5094306;28;20253;-64
2024/03/15 07:42:14;;;;;;;2.43;2.23;;;12.10;99.30;;;;;;5094309;28;20841;-65
2024/03/15 07:44:40;;;;;;;3.80;2.60;;;12.20;99.10;;;;;;5094334;28;20196;-64
2024/03/15 07:47:06;;;;;;;5.60;2.70;;;12.20;99.50;;;;;;5094684;28;20784;-64
2024/03/15 07:49:33;;;;;;;7.40;3.60;;;12.30;99.40;;;;;;5094051;28;20705;-64
2024/03/15 07:51:58;;;;;;;2.57;2.40;;;12.40;97.80;;;;;;5094378;28;20846;-64
2024/03/15 07:54:25;;;;;;;2.63;2.20;;;12.50;97.60;;;;;;5094149;28;20438;-64
2024/03/15 07:56:53;;;;;;;3.20;2.47;;;12.70;97.30;;;;;;5093944;28;20750;-64
2024/03/15 07:59:20;;;;;;;4.13;1.83;;;12.70;97.60;;;;;;5093825;28;20418;-65
2024/03/15 08:01:46;;;;;;;2.50;2.30;;;12.60;96.40;;;;;;5093802;28;20406;-65
2024/03/15 08:04:14;;;;;;;2.50;2.30;;;12.60;97.30;;;;;;5093982;28;20536;-64
2024/03/15 08:06:39;;;;;;;4.23;3.23;;;12.80;97.40;;;;;;5093976;28;20176;-64
2024/03/15 08:09:06;;;;;;;6.00;2.80;;;13.00;96.90;;;;;;5093696;28;20413;-65
2024/03/15 08:11:34;;;;;;;6.00;3.43;;;13.10;96.10;;;;;;5093689;28;20557;-64
2024/03/15 08:14:05;;;;;;;4.20;3.10;;;13.10;95.80;;;;;;5092849;28;20529;-64
2024/03/15 08:16:34;;;;;;;4.23;3.40;;;13.10;95.20;;;;;;5093858;28;20451;-65
2024/03/15 08:19:02;;;;;;;3.03;2.53;;;13.30;95.90;;;;;;5092999;28;20494;-64
2024/03/15 08:21:27;;;;;;;3.87;2.67;;;13.40;95.40;;;;;;5093250;28;20486;-65
2024/03/15 08:23:53;;;;;;;9.30;5.60;;;13.40;95.00;;;;;;5093377;28;20596;-65
2024/03/15 08:26:20;;;;;;;14.80;7.00;;;13.50;95.70;;;;;;5093754;28;20665;-65
2024/03/15 08:28:49;;;;;;;14.27;6.07;;;13.50;95.20;;;;;;5093304;28;20181;-64
2024/03/15 08:31:16;;;;;;;6.17;3.40;;;13.60;95.20;;;;;;5090298;28;20926;-64
2024/03/15 08:33:44;;;;;;;3.83;3.43;;;13.50;95.30;;;;;;5092926;28;20939;-63
2024/03/15 08:36:10;;;;;;;7.47;3.70;;;13.50;95.10;;;;;;5093785;28;20452;-64
2024/03/15 08:38:37;;;;;;;5.20;3.77;;;13.60;94.50;;;;;;5092063;28;20410;-64
2024/03/15 08:41:03;;;;;;;3.87;2.90;;;13.60;94.80;;;;;;5092403;28;20456;-64
2024/03/15 08:43:30;;;;;;;3.10;2.90;;;13.50;94.90;;;;;;5093123;28;20426;-64
2024/03/15 08:45:56;;;;;;;3.27;3.07;;;13.50;95.10;;;;;;5092883;28;20845;-64
2024/03/15 08:48:22;;;;;;;8.23;3.77;;;13.50;94.80;;;;;;5091246;28;20485;-63
2024/03/15 08:50:47;;;;;;;4.07;2.17;;;13.40;94.80;;;;;;5092985;28;20253;-63
2024/03/15 08:53:13;;;;;;;2.40;2.20;;;13.40;95.10;;;;;;5092566;28;20191;-64
2024/03/15 08:55:41;;;;;;;2.73;2.53;;;13.50;94.90;;;;;;5093155;28;20178;-63
2024/03/15 08:58:07;;;;;;;2.50;2.37;;;13.40;95.10;;;;;;5092637;28;20232;-63
2024/03/15 09:00:32;;;;;;;2.50;2.30;;;13.50;95.00;;;;;;5092677;28;20458;-64
2024/03/15 09:02:58;;;;;;;4.73;2.00;;;13.60;94.80;;;;;;5091864;28;20276;-63
2024/03/15 09:05:24;;;;;;;2.90;1.97;;;13.60;94.70;;;;;;5092124;28;20669;-64
2024/03/15 09:07:50;;;;;;;2.50;2.30;;;13.70;94.70;;;;;;5091454;28;20430;-64
2024/03/15 09:10:16;;;;;;;3.03;1.93;;;13.70;94.70;;;;;;5090539;28;20701;-64
2024/03/15 09:12:45;;;;;;;3.37;2.20;;;13.60;94.60;;;;;;5091082;28;20249;-64
2024/03/15 09:15:14;;;;;;;2.73;2.23;;;13.60;94.70;;;;;;5091743;28;20536;-64
2024/03/15 09:17:40;;;;;;;2.67;2.03;;;13.50;94.60;;;;;;5091932;28;20969;-64
2024/03/15 09:20:33;;;;;;;2.20;1.90;;;13.40;94.80;;;;;;5092183;28;20407;-63
2024/03/15 09:23:01;;;;;;;2.07;1.83;;;13.40;94.90;;;;;;5092519;28;20434;-64
2024/03/15 09:25:27;;;;;;;2.77;2.17;;;13.20;95.20;;;;;;5092393;28;20418;-64
2024/03/15 09:27:53;;;;;;;7.57;2.93;;;13.10;95.30;;;;;;5092410;28;20458;-64
2024/03/15 09:30:26;;;;;;;4.20;2.10;;;13.10;95.60;;;;;;5092259;28;20473;-64
2024/03/15 09:32:53;;;;;;;4.87;2.50;;;13.10;95.80;;;;;;5092234;28;20208;-64
2024/03/15 09:35:19;;;;;;;2.90;1.80;;;13.00;95.70;;;;;;5092468;28;20406;-64
2024/03/15 09:37:51;;;;;;;2.50;2.40;;;12.90;96.00;;;;;;5092049;28;20812;-63
2024/03/15 09:40:25;;;;;;;1.70;1.60;;;12.80;96.30;;;;;;5092026;28;20399;-64
2024/03/15 09:42:55;;;;;;;4.70;2.37;;;12.90;96.20;;;;;;5092192;28;20454;-63
2024/03/15 09:45:22;;;;;;;7.50;2.13;;;13.00;95.80;;;;;;5092408;28;20913;-64
2024/03/15 09:47:51;;;;;;;2.87;2.57;;;13.00;95.90;;;;;;5092021;28;20411;-64
2024/03/15 09:50:23;;;;;;;2.07;1.90;;;13.00;95.90;;;;;;5092070;28;20408;-64
2024/03/15 09:52:50;;;;;;;2.33;2.03;;;13.00;95.90;;;;;;5092100;28;20422;-64
2024/03/15 09:55:17;;;;;;;2.87;2.63;;;13.00;96.20;;;;;;5091939;28;20438;-64
2024/03/15 09:57:44;;;;;;;5.33;2.10;;;13.00;96.00;;;;;;5091621;28;20461;-64
2024/03/15 10:00:23;;;;;;;3.63;2.43;;;12.90;96.00;;;;;;5091661;28;20403;-64
2024/03/15 10:02:52;;;;;;;3.43;1.70;;;12.80;95.90;;;;;;5091183;28;20482;-65
2024/03/15 10:05:20;;;;;;;3.33;1.90;;;12.80;96.60;;;;;;5091342;28;20409;-64
2024/03/15 10:07:50;;;;;;;3.13;2.63;;;12.60;96.40;;;;;;5091440;28;21236;-64
2024/03/15 10:10:17;;;;;;;3.30;2.67;;;12.60;96.40;;;;;;5091425;28;20779;-64
2024/03/15 10:12:44;;;;;;;2.83;2.63;;;12.40;96.70;;;;;;5091734;28;20845;-64
2024/03/15 10:15:15;;;;;;;5.83;2.90;;;12.40;97.10;;;;;;5091755;28;20912;-64
2024/03/15 10:17:43;;;;;;;2.87;2.50;;;12.50;97.10;;;;;;5091639;28;20446;-63
2024/03/15 10:20:18;;;;;;;2.33;2.13;;;12.60;97.00;;;;;;5091500;28;20407;-64
2024/03/15 10:22:45;;;;;;;3.23;2.33;;;12.70;96.90;;;;;;5091468;28;20488;-64
2024/03/15 10:25:16;;;;;;;2.30;2.10;;;12.50;97.00;;;;;;5091773;28;20441;-64
2024/03/15 10:27:45;;;;;;;3.67;2.40;;;12.40;97.30;;;;;;5091838;28;20450;-64
2024/03/15 10:30:15;;;;;;;2.13;2.03;;;12.50;97.40;;;;;;5091510;28;20486;-64
2024/03/15 10:32:41;;;;;;;2.03;1.90;;;12.60;97.10;;;;;;5091670;28;20450;-64
2024/03/15 10:35:12;;;;;;;3.43;1.83;;;12.70;96.80;;;;;;5091540;28;20492;-64
2024/03/15 10:37:45;;;;;;;1.87;1.77;;;12.60;96.40;;;;;;5094003;28;20494;-63
2024/03/15 10:40:33;;;;;;;1.40;1.30;;;12.50;96.40;;;;;;5095523;28;20410;-64
2024/03/15 10:43:03;;;;;;;1.40;1.30;;;12.30;96.50;;;;;;5095581;28;20419;-64
2024/03/15 10:45:29;;;;;;;1.70;1.43;;;12.30;96.80;;;;;;5095483;28;20474;-63
2024/03/15 10:47:57;;;;;;;2.77;1.70;;;12.40;96.90;;;;;;5095577;28;20493;-64
2024/03/15 10:50:25;;;;;;;2.60;2.17;;;12.60;96.80;;;;;;5095352;28;20306;-63
2024/03/15 10:52:52;;;;;;;1.50;1.40;;;12.70;96.60;;;;;;5095401;28;20442;-64
2024/03/15 10:55:21;;;;;;;1.90;1.60;;;13.00;96.60;;;;;;5095419;28;20525;-63
2024/03/15 10:57:48;;;;;;;1.73;1.40;;;13.20;96.30;;;;;;5095151;28;20830;-64
2024/03/15 11:00:17;;;;;;;2.10;1.60;;;13.50;96.00;;;;;;5095116;28;20866;-62
2024/03/15 11:02:50;;;;;;;3.30;1.70;;;13.60;95.10;;;;;;5095226;28;20426;-64
2024/03/15 11:05:29;;;;;;;1.30;1.20;;;13.70;95.10;;;;;;5095200;28;20406;-63
2024/03/15 11:08:07;;;;;;;2.00;1.30;;;13.80;95.30;;;;;;5095038;28;20411;-64
2024/03/15 11:10:32;;;;;;;1.67;1.03;;;13.80;94.70;;;;;;5076962;28;20487;-63
2024/03/15 11:13:00;;;;;;;1.90;1.47;;;13.70;94.90;;;;;;5095005;28;20521;-63
2024/03/15 11:15:34;;;;;;;2.23;1.80;;;13.80;94.70;;;;;;5094968;28;20167;-64
2024/03/15 11:18:02;;;;;;;1.50;1.40;;;13.80;94.40;;;;;;5094737;28;20454;-64
2024/03/15 11:20:54;;;;;;;2.80;1.53;;;13.80;95.20;;;;;;5094768;28;20405;-63
2024/03/15 11:23:22;;;;;;;2.87;1.63;;;13.80;94.20;;;;;;5094611;28;20448;-65
2024/03/15 11:25:57;;;;;;;2.50;2.30;;;13.80;94.30;;;;;;5094949;28;20434;-65
2024/03/15 11:28:29;;;;;;;1.70;1.60;;;13.80;94.40;;;;;;5094161;28;20413;-65
2024/03/15 11:30:55;;;;;;;1.43;1.00;;;13.80;94.20;;;;;;5094737;28;20782;-65
2024/03/15 11:33:22;;;;;;;2.20;1.17;;;13.70;94.40;;;;;;5094479;28;20427;-65
2024/03/15 11:35:49;;;;;;;1.93;1.27;;;13.70;94.60;;;;;;5094566;28;20172;-65
2024/03/15 11:38:16;;;;;;;1.57;1.30;;;13.80;94.20;;;;;;5094357;28;20411;-65
2024/03/15 11:40:42;;;;;;;2.33;1.20;;;13.80;94.20;;;;;;5094498;28;20431;-65
2024/03/15 11:43:09;;;;;;;0.90;0.90;;;14.00;94.10;;;;;;5094375;28;20469;-65
2024/03/15 11:45:44;;;;;;;1.20;1.10;;;14.20;94.10;;;;;;5094412;28;20459;-65
2024/03/15 11:48:21;;;;;;;3.10;1.87;;;14.20;93.30;;;;;;5092663;28;20449;-65
2024/03/15 11:50:55;;;;;;;1.17;1.17;;;14.10;93.90;;;;;;5094431;28;20812;-65
2024/03/15 11:53:22;;;;;;;2.37;1.70;;;14.30;93.90;;;;;;5094226;28;20418;-65
2024/03/15 11:55:49;;;;;;;1.47;1.37;;;14.70;93.80;;;;;;5094158;28;20441;-65
2024/03/15 11:58:17;;;;;;;3.03;1.30;;;15.10;93.00;;;;;;5093815;28;20457;-65
2024/03/15 12:00:50;;;;;;;2.30;1.10;;;15.20;92.00;;;;;;5094126;28;20418;-65
2024/03/15 12:03:17;;;;;;;1.67;1.43;;;15.30;91.60;;;;;;5094121;28;20434;-65
2024/03/15 12:05:43;;;;;;;1.10;1.10;;;15.50;91.50;;;;;;5094079;28;20415;-65
2024/03/15 12:08:13;;;;;;;1.50;1.40;;;15.50;91.10;;;;;;5093629;28;20415;-65
2024/03/15 12:10:42;;;;;;;1.10;0.90;;;15.30;91.40;;;;;;5093916;28;20411;-66
2024/03/15 12:13:26;;;;;;;1.37;1.27;;;15.20;91.60;;;;;;5093742;28;20438;-65
2024/03/15 12:15:53;;;;;;;2.17;1.27;;;15.10;91.30;;;;;;5093837;28;20421;-65
2024/03/15 12:18:23;;;;;;;0.93;0.83;;;15.10;91.20;;;;;;5093517;28;20417;-65
2024/03/15 12:20:52;;;;;;;5.63;1.00;;;15.00;90.70;;;;;;5093858;28;20410;-65
2024/03/15 12:23:20;;;;;;;2.73;1.50;;;14.50;91.00;;;;;;5093509;28;20457;-65
2024/03/15 12:25:47;;;;;;;1.40;1.30;;;13.90;91.80;;;;;;5093649;28;20774;-65
2024/03/15 12:28:14;;;;;;;1.10;1.07;;;14.00;92.00;;;;;;5093264;28;20419;-65
2024/03/15 12:30:42;;;;;;;1.00;1.00;;;14.00;92.40;;;;;;5093542;28;20403;-65
2024/03/15 12:33:11;;;;;;;6.30;1.30;;;14.00;92.10;;;;;;5093529;28;20504;-65
2024/03/15 12:35:37;;;;;;;1.23;1.13;;;14.20;91.80;;;;;;5093456;28;20414;-65
2024/03/15 12:38:03;;;;;;;2.83;2.00;;;14.20;91.80;;;;;;5093133;28;20851;-65
2024/03/15 12:40:29;;;;;;;1.63;1.40;;;14.30;91.80;;;;;;5093242;28;20414;-65
2024/03/15 12:42:55;;;;;;;0.90;0.90;;;14.50;91.20;;;;;;5093288;28;20273;-65
2024/03/15 12:45:21;;;;;;;0.90;0.90;;;14.40;91.70;;;;;;5092772;28;20780;-65
2024/03/15 12:47:47;;;;;;;2.80;1.33;;;14.30;91.40;;;;;;5093093;28;20415;-65
2024/03/15 12:50:26;;;;;;;1.60;1.50;;;14.50;91.60;;;;;;5092995;28;20256;-65
2024/03/15 12:52:53;;;;;;;1.00;1.00;;;14.70;91.00;;;;;;5093115;28;20224;-65
2024/03/15 12:55:19;;;;;;;2.10;1.10;;;14.90;90.90;;;;;;5093219;28;20411;-65